createdAt,value
2023-07-24T00:00:00.168Z,5.10
2023-07-24T00:02:27.133Z,4.73
2023-07-24T00:04:53.943Z,5.30
2023-07-24T00:07:20.698Z,4.70
2023-07-24T00:09:47.448Z,5.10
2023-07-24T00:12:14.210Z,4.80
2023-07-24T00:14:40.997Z,5.17
2023-07-24T00:17:07.890Z,4.93
2023-07-24T00:19:34.617Z,5.23
2023-07-24T00:22:01.411Z,6.03
2023-07-24T00:24:28.210Z,5.20
2023-07-24T00:26:55.138Z,5.97
2023-07-24T00:29:21.843Z,5.90
2023-07-24T00:31:49.118Z,6.43
2023-07-24T00:34:15.869Z,6.30
2023-07-24T00:36:42.619Z,6.60
2023-07-24T00:39:09.344Z,5.90
2023-07-24T00:41:36.078Z,6.73
2023-07-24T00:44:02.896Z,6.30
2023-07-24T00:46:33.683Z,7.30
2023-07-24T00:49:02.794Z,7.00
2023-07-24T00:51:29.828Z,7.90
2023-07-24T00:53:57.903Z,7.73
2023-07-24T00:56:24.821Z,8.23
2023-07-24T00:58:52.718Z,7.83
2023-07-24T01:01:19.619Z,6.90
2023-07-24T01:03:46.606Z,7.40
2023-07-24T01:06:13.405Z,6.90
2023-07-24T01:08:40.147Z,8.27
2023-07-24T01:11:34.072Z,7.10
2023-07-24T01:14:13.386Z,7.80
2023-07-24T01:16:44.558Z,7.33
2023-07-24T01:19:18.966Z,7.10
2023-07-24T01:22:02.365Z,7.30
2023-07-24T01:24:43.526Z,7.23
2023-07-24T01:27:10.369Z,7.90
2023-07-24T01:29:37.169Z,7.33
2023-07-24T01:32:04.277Z,7.73
2023-07-24T01:34:31.028Z,6.93
2023-07-24T01:36:57.938Z,6.90
2023-07-24T01:39:24.908Z,7.03
2023-07-24T01:41:52.098Z,7.13
2023-07-24T01:44:19.298Z,7.20
2023-07-24T01:46:46.213Z,6.47
2023-07-24T01:49:13.065Z,6.73
2023-07-24T01:51:39.793Z,6.40
2023-07-24T01:54:06.501Z,6.67
2023-07-24T01:56:35.030Z,5.87
2023-07-24T01:59:01.745Z,5.03
2023-07-24T02:01:28.548Z,5.70
2023-07-24T02:03:55.367Z,4.87
2023-07-24T02:06:22.086Z,4.93
2023-07-24T02:08:50.138Z,5.30
2023-07-24T02:11:17.146Z,4.40
2023-07-24T02:13:47.496Z,5.03
2023-07-24T02:16:14.755Z,4.63
2023-07-24T02:18:44.029Z,4.77
2023-07-24T02:21:10.750Z,4.60
2023-07-24T02:23:37.586Z,5.87
2023-07-24T02:26:04.298Z,4.57
2023-07-24T02:28:31.009Z,5.13
2023-07-24T02:30:58.330Z,4.50
2023-07-24T02:33:25.051Z,4.60
2023-07-24T02:35:53.854Z,5.00
2023-07-24T02:38:20.583Z,4.10
2023-07-24T02:40:47.317Z,4.50
2023-07-24T02:43:14.302Z,4.80
2023-07-24T02:45:41.007Z,4.73
2023-07-24T02:48:08.035Z,4.50
2023-07-24T02:50:35.004Z,4.50
2023-07-24T02:53:02.017Z,4.67
2023-07-24T02:55:28.749Z,5.07
2023-07-24T02:57:55.939Z,4.63
2023-07-24T03:00:22.664Z,4.97
2023-07-24T03:02:49.489Z,5.20
2023-07-24T03:05:16.372Z,4.70
2023-07-24T03:07:43.048Z,4.77
2023-07-24T03:10:10.378Z,5.27
2023-07-24T03:12:37.174Z,4.40
2023-07-24T03:15:04.094Z,4.17
2023-07-24T03:17:30.850Z,4.33
2023-07-24T03:19:57.561Z,4.70
2023-07-24T03:22:24.392Z,4.83
2023-07-24T03:24:51.114Z,4.50
2023-07-24T03:27:17.889Z,4.60
2023-07-24T03:29:44.647Z,4.43
2023-07-24T03:32:11.386Z,4.20
2023-07-24T03:34:38.168Z,4.20
2023-07-24T03:37:05.073Z,4.50
2023-07-24T03:39:31.790Z,4.90
2023-07-24T03:41:58.488Z,4.80
2023-07-24T03:44:25.912Z,4.20
2023-07-24T03:46:52.646Z,4.53
2023-07-24T03:49:19.458Z,5.03
2023-07-24T03:51:46.188Z,4.30
2023-07-24T03:54:12.908Z,5.20
2023-07-24T03:56:39.660Z,4.37
2023-07-24T03:59:07.449Z,4.97
2023-07-24T04:01:34.213Z,4.07
2023-07-24T04:04:01.090Z,4.40
2023-07-24T04:06:28.289Z,4.90
2023-07-24T04:08:55.260Z,4.03
2023-07-24T04:11:22.020Z,4.90
2023-07-24T04:13:48.738Z,4.73
2023-07-24T04:16:15.475Z,4.20
2023-07-24T04:18:42.171Z,4.23
2023-07-24T04:21:08.975Z,4.00
2023-07-24T04:23:36.037Z,4.57
2023-07-24T04:26:03.824Z,3.77
2023-07-24T04:28:30.618Z,3.70
2023-07-24T04:31:02.478Z,3.80
2023-07-24T04:33:29.408Z,4.20
2023-07-24T04:35:57.098Z,3.60
2023-07-24T04:38:24.077Z,3.97
2023-07-24T04:40:50.876Z,3.33
2023-07-24T04:43:17.603Z,4.10
2023-07-24T04:45:44.391Z,4.20
2023-07-24T04:48:11.097Z,4.10
2023-07-24T04:50:37.858Z,4.20
2023-07-24T04:53:04.610Z,4.10
2023-07-24T04:55:31.437Z,4.00
2023-07-24T04:57:58.209Z,4.10
2023-07-24T05:00:24.964Z,4.17
2023-07-24T05:02:51.778Z,4.30
2023-07-24T05:05:18.611Z,4.00
2023-07-24T05:07:45.453Z,4.40
2023-07-24T05:10:12.310Z,3.70
2023-07-24T05:12:41.405Z,4.37
2023-07-24T05:15:08.592Z,4.30
2023-07-24T05:17:35.400Z,3.80
2023-07-24T05:20:02.166Z,4.03
2023-07-24T05:22:28.889Z,4.23
2023-07-24T05:24:55.642Z,4.67
2023-07-24T05:27:22.410Z,3.70
2023-07-24T05:29:49.133Z,4.03
2023-07-24T05:32:15.874Z,4.60
2023-07-24T05:34:44.612Z,4.73
2023-07-24T05:37:13.022Z,4.47
2023-07-24T05:39:39.761Z,5.00
2023-07-24T05:42:06.705Z,5.37
2023-07-24T05:44:34.205Z,5.40
2023-07-24T05:47:00.914Z,5.97
2023-07-24T05:49:27.605Z,6.03
2023-07-24T05:51:55.138Z,5.93
2023-07-24T05:54:21.892Z,5.60
2023-07-24T05:56:48.716Z,5.10
2023-07-24T05:59:15.547Z,5.40
2023-07-24T06:01:42.332Z,5.80
2023-07-24T06:04:09.094Z,5.77
2023-07-24T06:06:37.457Z,5.23
2023-07-24T06:09:04.230Z,5.43
2023-07-24T06:11:30.964Z,5.70
2023-07-24T06:13:57.690Z,5.63
2023-07-24T06:16:24.501Z,6.97
2023-07-24T06:18:51.239Z,5.50
2023-07-24T06:21:17.964Z,5.90
2023-07-24T06:23:44.686Z,6.30
2023-07-24T06:26:11.467Z,6.07
2023-07-24T06:28:38.308Z,5.90
2023-07-24T06:31:05.049Z,5.90
2023-07-24T06:33:31.767Z,5.37
2023-07-24T06:35:58.495Z,6.30
2023-07-24T06:38:25.208Z,5.97
2023-07-24T06:40:51.993Z,5.23
2023-07-24T06:43:18.820Z,4.60
2023-07-24T06:45:45.620Z,5.10
2023-07-24T06:48:12.357Z,4.70
2023-07-24T06:50:39.183Z,5.17
2023-07-24T06:53:05.893Z,5.47
2023-07-24T06:55:32.819Z,5.33
2023-07-24T06:57:59.529Z,10.10
2023-07-24T07:00:26.324Z,6.27
2023-07-24T07:02:53.124Z,5.30
2023-07-24T07:05:19.908Z,5.20
2023-07-24T07:07:46.666Z,4.80
2023-07-24T07:10:13.406Z,5.00
2023-07-24T07:12:40.137Z,4.57
2023-07-24T07:15:07.404Z,5.00
2023-07-24T07:17:34.117Z,5.30
2023-07-24T07:20:00.830Z,5.07
2023-07-24T07:22:27.591Z,4.90
2023-07-24T07:24:54.442Z,5.07
2023-07-24T07:27:21.161Z,4.97
2023-07-24T07:29:47.952Z,5.80
2023-07-24T07:32:14.704Z,5.60
2023-07-24T07:34:41.465Z,5.80
2023-07-24T07:37:08.166Z,6.40
2023-07-24T07:39:34.897Z,6.13
2023-07-24T07:44:34.701Z,7.00
2023-07-24T07:47:01.471Z,6.30
2023-07-24T07:49:31.046Z,7.20
2023-07-24T07:51:58.189Z,7.47
2023-07-24T07:54:24.893Z,6.80
2023-07-24T07:56:51.621Z,7.57
2023-07-24T07:59:18.336Z,8.30
2023-07-24T08:01:46.792Z,7.83
2023-07-24T08:04:13.587Z,7.33
2023-07-24T08:06:40.306Z,8.17
2023-07-24T08:09:06.994Z,10.57
2023-07-24T08:11:33.706Z,8.23
2023-07-24T08:14:00.397Z,8.27
2023-07-24T08:16:27.343Z,8.03
2023-07-24T08:18:56.200Z,8.63
2023-07-24T08:21:24.981Z,7.90
2023-07-24T08:23:51.710Z,8.50
2023-07-24T08:26:18.424Z,8.10
2023-07-24T08:28:45.230Z,8.67
2023-07-24T08:31:12.374Z,7.87
2023-07-24T08:33:39.254Z,8.20
2023-07-24T08:36:08.701Z,8.67
2023-07-24T08:38:36.391Z,8.13
2023-07-24T08:41:11.267Z,7.90
2023-07-24T08:43:40.869Z,8.00
2023-07-24T08:46:08.383Z,9.10
2023-07-24T08:48:42.455Z,8.57
2023-07-24T08:51:15.522Z,8.57
2023-07-24T08:53:43.794Z,8.90
2023-07-24T08:56:13.197Z,8.30
2023-07-24T08:58:40.813Z,7.93
2023-07-24T09:01:07.876Z,8.17
2023-07-24T09:03:35.047Z,7.73
2023-07-24T09:06:02.606Z,7.70
2023-07-24T09:08:40.692Z,8.00
2023-07-24T09:11:08.942Z,8.30
2023-07-24T09:13:41.586Z,8.00
2023-07-24T09:16:08.544Z,7.97
2023-07-24T09:18:44.722Z,7.50
2023-07-24T09:21:13.284Z,7.50
2023-07-24T09:23:44.496Z,7.03
2023-07-24T09:26:11.245Z,7.43
2023-07-24T09:28:38.084Z,6.57
2023-07-24T09:31:05.962Z,7.13
2023-07-24T09:33:44.764Z,8.03
2023-07-24T09:36:12.012Z,7.60
2023-07-24T09:38:39.584Z,7.70
2023-07-24T09:41:07.532Z,8.20
2023-07-24T09:43:40.367Z,7.67
2023-07-24T09:46:10.006Z,7.60
2023-07-24T09:48:42.377Z,7.90
2023-07-24T09:51:24.718Z,7.60
2023-07-24T09:53:56.824Z,8.53
2023-07-24T09:56:35.214Z,8.37
2023-07-24T09:59:11.714Z,8.10
2023-07-24T10:01:39.294Z,7.70
2023-07-24T10:04:07.305Z,7.23
2023-07-24T10:06:34.930Z,7.57
2023-07-24T10:09:02.320Z,7.47
2023-07-24T10:11:29.570Z,6.90
2023-07-24T10:13:57.042Z,5.97
2023-07-24T10:16:23.851Z,4.77
2023-07-24T10:18:50.793Z,4.20
2023-07-24T10:21:18.010Z,4.00
2023-07-24T10:23:47.713Z,3.53
2023-07-24T10:26:17.025Z,3.80
2023-07-24T10:28:43.936Z,3.93
2023-07-24T10:31:31.398Z,3.73
2023-07-24T10:34:06.157Z,3.57
2023-07-24T10:36:37.309Z,3.70
2023-07-24T10:39:13.718Z,3.40
2023-07-24T10:41:41.084Z,2.93
2023-07-24T10:44:07.949Z,3.20
2023-07-24T10:46:42.386Z,3.60
2023-07-24T10:49:09.861Z,3.13
2023-07-24T10:51:38.683Z,2.23
2023-07-24T10:54:06.704Z,2.27
2023-07-24T10:56:33.704Z,2.10
2023-07-24T10:59:06.915Z,2.20
2023-07-24T11:01:35.056Z,2.50
2023-07-24T11:04:02.707Z,2.23
2023-07-24T11:06:29.584Z,2.50
2023-07-24T11:08:58.226Z,2.30
2023-07-24T11:11:36.790Z,2.17
2023-07-24T11:14:04.679Z,2.63
2023-07-24T11:16:32.661Z,2.47
2023-07-24T11:18:59.597Z,2.10
2023-07-24T11:21:26.791Z,2.20
2023-07-24T11:23:55.460Z,2.30
2023-07-24T11:26:24.327Z,2.30
2023-07-24T11:28:52.202Z,2.33
2023-07-24T11:31:22.390Z,2.30
2023-07-24T11:33:50.588Z,2.37
2023-07-24T11:36:17.585Z,2.50
2023-07-24T11:38:46.801Z,2.53
2023-07-24T11:41:14.230Z,2.70
2023-07-24T11:43:50.642Z,2.70
2023-07-24T11:46:25.463Z,2.33
2023-07-24T11:48:54.675Z,2.80
2023-07-24T11:51:21.815Z,2.83
2023-07-24T11:53:48.692Z,3.00
2023-07-24T11:56:17.056Z,3.67
2023-07-24T11:58:43.957Z,3.27
2023-07-24T12:01:13.630Z,2.97
2023-07-24T12:03:41.856Z,3.23
2023-07-24T12:06:16.842Z,3.53
2023-07-24T12:08:43.604Z,3.40
2023-07-24T12:11:19.757Z,3.77
2023-07-24T12:13:46.707Z,4.00
2023-07-24T12:16:13.765Z,4.87
2023-07-24T12:18:40.507Z,4.40
2023-07-24T12:21:07.222Z,5.40
2023-07-24T12:23:33.956Z,5.33
2023-07-24T12:26:00.706Z,5.70
2023-07-24T12:28:27.500Z,5.50
2023-07-24T12:30:54.393Z,5.60
2023-07-24T12:33:24.643Z,4.90
2023-07-24T12:35:52.794Z,5.30
2023-07-24T12:38:19.968Z,5.73
2023-07-24T12:40:46.678Z,5.50
2023-07-24T12:43:13.486Z,6.20
2023-07-24T12:45:40.289Z,6.30
2023-07-24T12:48:07.156Z,6.13
2023-07-24T12:50:34.776Z,6.87
2023-07-24T12:53:04.149Z,6.93
2023-07-24T12:55:31.929Z,7.13
2023-07-24T12:57:58.831Z,6.63
2023-07-24T13:00:25.587Z,7.70
2023-07-24T13:02:52.921Z,6.70
2023-07-24T13:05:19.710Z,6.57
2023-07-24T13:07:47.357Z,8.00
2023-07-24T13:10:14.078Z,7.60
2023-07-24T13:12:40.934Z,8.00
2023-07-24T13:15:07.970Z,7.03
2023-07-24T13:17:34.799Z,8.27
2023-07-24T13:20:01.600Z,7.20
2023-07-24T13:22:28.643Z,7.83
2023-07-24T13:24:55.467Z,7.20
2023-07-24T13:27:22.262Z,8.27
2023-07-24T13:29:48.966Z,7.33
2023-07-24T13:32:17.194Z,7.83
2023-07-24T13:34:43.962Z,8.10
2023-07-24T13:37:10.697Z,7.70
2023-07-24T13:39:37.428Z,7.77
2023-07-24T13:42:04.391Z,8.00
2023-07-24T13:44:31.153Z,9.10
2023-07-24T13:46:57.894Z,7.80
2023-07-24T13:49:24.615Z,8.30
2023-07-24T13:51:51.342Z,8.10
2023-07-24T13:54:18.131Z,8.07
2023-07-24T13:56:44.883Z,7.13
2023-07-24T13:59:11.618Z,6.43
2023-07-24T14:01:38.374Z,7.00
2023-07-24T14:04:05.458Z,5.47
2023-07-24T14:06:32.366Z,6.30
2023-07-24T14:08:59.060Z,5.73
2023-07-24T14:11:27.857Z,5.33
2023-07-24T14:13:54.687Z,5.57
2023-07-24T14:16:21.459Z,5.50
2023-07-24T14:18:48.262Z,4.70
2023-07-24T14:21:14.962Z,4.73
2023-07-24T14:23:41.745Z,4.20
2023-07-24T14:26:08.441Z,4.53
2023-07-24T14:28:35.210Z,4.20
2023-07-24T14:31:02.036Z,4.03
2023-07-24T14:33:28.813Z,3.67
2023-07-24T14:35:56.040Z,3.50
2023-07-24T14:38:22.957Z,3.40
2023-07-24T14:40:50.000Z,3.60
2023-07-24T14:43:16.787Z,3.27
2023-07-24T14:45:43.620Z,3.10
2023-07-24T14:48:10.565Z,3.07
2023-07-24T14:50:37.479Z,2.80
2023-07-24T14:53:04.257Z,2.70
2023-07-24T14:55:30.984Z,2.63
2023-07-24T14:57:57.705Z,3.13
2023-07-24T15:00:24.471Z,3.17
2023-07-24T15:02:51.246Z,3.60
2023-07-24T15:05:17.978Z,2.90
2023-07-24T15:07:44.712Z,2.80
2023-07-24T15:10:12.601Z,3.27
2023-07-24T15:12:39.355Z,3.03
2023-07-24T15:15:06.860Z,2.97
2023-07-24T15:17:33.852Z,2.90
2023-07-24T15:20:00.625Z,2.97
2023-07-24T15:22:27.628Z,2.93
2023-07-24T15:24:54.404Z,3.17
2023-07-24T15:27:21.186Z,3.43
2023-07-24T15:29:48.362Z,3.30
2023-07-24T15:32:15.149Z,3.13
2023-07-24T15:34:41.885Z,3.40
2023-07-24T15:37:08.783Z,3.20
2023-07-24T15:39:35.502Z,3.17
2023-07-24T15:42:02.456Z,3.20
2023-07-24T15:44:29.234Z,2.57
2023-07-24T15:46:56.062Z,2.53
2023-07-24T15:49:22.834Z,2.60
2023-07-24T15:51:49.596Z,2.60
2023-07-24T15:54:16.381Z,2.43
2023-07-24T15:56:43.214Z,2.60
2023-07-24T15:59:12.656Z,2.77
2023-07-24T16:01:39.480Z,2.50
2023-07-24T16:04:06.260Z,2.50
2023-07-24T16:06:33.071Z,2.67
2023-07-24T16:09:01.315Z,3.17
2023-07-24T16:11:29.040Z,2.60
2023-07-24T16:13:56.228Z,2.83
2023-07-24T16:16:22.934Z,3.30
2023-07-24T16:19:15.500Z,3.40
2023-07-24T16:21:43.991Z,3.00
2023-07-24T16:39:33.231Z,3.20
2023-07-24T16:42:00.073Z,3.80
2023-07-24T16:47:11.729Z,3.03
2023-07-24T16:49:38.825Z,2.37
2023-07-24T16:52:05.854Z,2.80
2023-07-24T16:54:32.593Z,2.70
2023-07-24T16:56:59.286Z,2.77
2023-07-24T16:59:27.415Z,3.07
2023-07-24T17:01:54.152Z,3.00
2023-07-24T17:04:20.879Z,3.00
2023-07-24T17:06:47.676Z,3.13
2023-07-24T17:09:14.486Z,3.03
2023-07-24T17:11:41.340Z,3.20
2023-07-24T17:14:08.073Z,2.97
2023-07-24T17:16:34.914Z,3.30
2023-07-24T17:19:01.718Z,3.50
2023-07-24T17:21:28.849Z,3.20
2023-07-24T17:23:55.817Z,3.40
2023-07-24T17:26:22.621Z,3.87
2023-07-24T17:28:49.409Z,4.10
2023-07-24T17:31:16.323Z,4.10
2023-07-24T17:33:43.134Z,4.30
2023-07-24T17:36:09.923Z,4.70
2023-07-24T17:38:36.660Z,4.43
2023-07-24T17:41:05.143Z,4.80
2023-07-24T17:43:31.980Z,5.10
2023-07-24T17:45:58.750Z,5.03
2023-07-24T17:48:26.096Z,4.60
2023-07-24T17:50:52.923Z,3.77
2023-07-24T17:53:19.672Z,3.93
2023-07-24T17:55:47.463Z,3.73
2023-07-24T17:58:15.806Z,3.37
2023-07-24T18:00:45.995Z,2.90
2023-07-24T18:03:13.665Z,3.53
2023-07-24T18:05:40.792Z,3.33
2023-07-24T18:08:07.683Z,3.27
2023-07-24T18:10:34.464Z,3.50
2023-07-24T18:13:01.306Z,3.43
2023-07-24T18:15:28.119Z,2.90
2023-07-24T18:17:55.126Z,2.80
2023-07-24T18:20:21.904Z,3.07
2023-07-24T18:22:48.707Z,2.70
2023-07-24T18:25:15.707Z,3.40
2023-07-24T18:27:42.543Z,3.70
2023-07-24T18:30:09.485Z,3.57
2023-07-24T18:32:36.288Z,3.50
2023-07-24T18:35:03.218Z,3.50
2023-07-24T18:37:30.081Z,3.60
2023-07-24T18:39:56.795Z,3.50
2023-07-24T18:42:23.607Z,3.83
2023-07-24T18:44:50.348Z,4.13
2023-07-24T18:47:17.073Z,4.07
2023-07-24T18:49:43.839Z,4.20
2023-07-24T18:52:10.671Z,4.90
2023-07-24T18:54:37.400Z,4.00
2023-07-24T18:57:04.479Z,3.90
2023-07-24T18:59:31.296Z,3.77
2023-07-24T19:01:58.081Z,4.67
2023-07-24T19:04:24.888Z,3.60
2023-07-24T19:06:51.773Z,4.63
2023-07-24T19:09:18.532Z,5.00
2023-07-24T19:11:45.363Z,4.13
2023-07-24T19:14:12.119Z,4.20
2023-07-24T19:16:38.833Z,4.33
2023-07-24T19:19:08.329Z,4.43
2023-07-24T19:21:35.868Z,4.70
2023-07-24T19:24:03.422Z,4.90
2023-07-24T19:26:30.292Z,4.30
2023-07-24T19:28:57.039Z,4.33
2023-07-24T19:31:23.824Z,4.37
2023-07-24T19:33:50.669Z,5.00
2023-07-24T19:36:17.387Z,5.23
2023-07-24T19:38:44.171Z,4.73
2023-07-24T19:41:10.972Z,5.00
2023-07-24T19:43:37.735Z,4.50
2023-07-24T19:46:08.835Z,4.30
2023-07-24T19:48:36.178Z,4.63
2023-07-24T19:51:04.098Z,4.70
2023-07-24T19:53:31.014Z,4.73
2023-07-24T19:55:57.941Z,4.50
2023-07-24T19:58:32.981Z,4.47
2023-07-24T20:01:01.184Z,3.93
2023-07-24T20:03:28.847Z,4.10
2023-07-24T20:05:56.515Z,4.23
2023-07-24T20:08:28.707Z,4.10
2023-07-24T20:10:59.844Z,4.10
2023-07-24T20:13:27.896Z,4.20
2023-07-24T20:15:54.956Z,3.47
2023-07-24T20:18:21.739Z,3.30
2023-07-24T20:20:50.281Z,3.87
2023-07-24T20:23:19.644Z,4.00
2023-07-24T20:25:47.960Z,4.07
2023-07-24T20:28:14.911Z,4.03
2023-07-24T20:30:41.654Z,3.37
2023-07-24T20:33:08.496Z,3.70
2023-07-24T20:35:35.250Z,3.67
2023-07-24T20:38:05.188Z,3.60
2023-07-24T20:40:33.614Z,3.53
2023-07-24T20:43:00.778Z,3.80
2023-07-24T20:45:27.694Z,3.23
2023-07-24T20:47:54.473Z,3.70
2023-07-24T20:50:21.294Z,4.10
2023-07-24T20:52:48.047Z,3.57
2023-07-24T20:55:14.893Z,3.83
2023-07-24T20:57:41.637Z,3.37
2023-07-24T21:00:08.796Z,3.50
2023-07-24T21:02:35.534Z,3.53
2023-07-24T21:05:02.352Z,4.03
2023-07-24T21:07:29.208Z,3.50
2023-07-24T21:09:55.930Z,3.53
2023-07-24T21:12:22.736Z,3.60
2023-07-24T21:14:49.536Z,3.50
2023-07-24T21:17:16.393Z,3.40
2023-07-24T21:19:43.157Z,3.60
2023-07-24T21:22:10.487Z,3.60
2023-07-24T21:24:37.219Z,3.13
2023-07-24T21:27:04.246Z,3.30
2023-07-24T21:29:31.008Z,3.30
2023-07-24T21:31:57.943Z,3.10
2023-07-24T21:34:24.712Z,2.97
2023-07-24T21:36:51.487Z,3.10
2023-07-24T21:39:18.236Z,2.93
2023-07-24T21:41:44.934Z,2.87
2023-07-24T21:44:11.667Z,3.00
2023-07-24T21:46:38.454Z,3.13
2023-07-24T21:49:05.189Z,2.70
2023-07-24T21:51:32.709Z,3.23
2023-07-24T21:53:59.774Z,2.87
2023-07-24T21:56:26.516Z,2.87
2023-07-24T21:58:53.231Z,2.90
2023-07-24T22:01:21.391Z,2.80
2023-07-24T22:03:48.708Z,2.80
2023-07-24T22:06:15.635Z,2.70
2023-07-24T22:08:43.160Z,2.67
2023-07-24T22:11:14.883Z,2.90
2023-07-24T22:13:44.422Z,3.00
2023-07-24T22:16:12.449Z,2.77
2023-07-24T22:18:39.291Z,2.80
2023-07-24T22:21:06.129Z,2.63
2023-07-24T22:23:33.643Z,2.73
2023-07-24T22:26:03.651Z,2.60
2023-07-24T22:28:30.517Z,2.83
2023-07-24T22:30:57.285Z,3.00
2023-07-24T22:33:24.114Z,3.17
2023-07-24T22:36:00.603Z,3.13
2023-07-24T22:38:28.564Z,3.70
2023-07-24T22:40:55.332Z,3.33
2023-07-24T22:43:22.155Z,3.63
2023-07-24T22:45:49.882Z,3.63
2023-07-24T22:48:17.268Z,3.50
2023-07-24T22:50:44.104Z,3.50
2023-07-24T22:53:10.889Z,3.50
2023-07-24T22:55:37.579Z,3.20
2023-07-24T22:58:04.651Z,3.60
2023-07-24T23:00:31.700Z,3.20
2023-07-24T23:02:58.572Z,3.70
2023-07-24T23:05:25.473Z,3.20
2023-07-24T23:07:55.910Z,3.17
2023-07-24T23:10:22.781Z,3.60
2023-07-24T23:12:49.489Z,3.87
2023-07-24T23:15:16.304Z,4.77
2023-07-24T23:17:43.091Z,3.13
2023-07-24T23:20:09.993Z,3.50
2023-07-24T23:22:36.940Z,3.53
2023-07-24T23:25:03.880Z,3.33
2023-07-24T23:27:30.599Z,3.60
2023-07-24T23:29:57.317Z,3.30
2023-07-24T23:32:24.082Z,3.83
2023-07-24T23:34:50.872Z,2.80
2023-07-24T23:37:17.606Z,3.20
2023-07-24T23:39:44.301Z,2.97
2023-07-24T23:42:11.031Z,3.40
2023-07-24T23:44:37.744Z,3.37
2023-07-24T23:47:04.685Z,3.30
2023-07-24T23:49:31.860Z,2.83
2023-07-24T23:51:58.602Z,3.10
2023-07-24T23:54:25.401Z,2.83
2023-07-24T23:56:52.169Z,3.07
2023-07-24T23:59:18.876Z,2.90
